Idlib, Syria
Current Conditions -  °F | °C
As of 6:50 PM on Monday 26 Jan 2015 (Local Time) from LTDA Reporting Station
Scattered Clouds Scattered Clouds  
Wind Chill: 52°   Ceiling: Unl
Heat Index: 52°   Visibility: 6mi
Dew Point: 43°   Wind: 6mph
Humidity: 71%   Direction: 270°W
Pressure: 30.09"   Gusts: NA
Location:  35.94°N, 36.63°E
Report Text: LTDA 261550Z 27005KT 9999 SCT035 11/06 Q1019
Loading
Personal Weather Stations






























Interactive Weather Map New forecast layout! Learn more

10-Day Weather Forecast

Advertisements
Track Severe Weather on mobile